sensor_id;sensor_type;location;lat;lon;timestamp;pressure;altitude;pressure_sealevel;temperature;humidity
78014;BME280;67222;50.182;8.734;2023-04-07T04:30:30;100392.19;;;6.23;89.09
78014;BME280;67222;50.182;8.734;2023-04-07T04:32:55;100396.03;;;6.21;89.57
78014;BME280;67222;50.182;8.734;2023-04-07T04:35:21;100398.31;;;6.24;88.63
78014;BME280;67222;50.182;8.734;2023-04-07T04:37:46;100397.03;;;6.20;89.67
78014;BME280;67222;50.182;8.734;2023-04-07T04:40:12;100390.75;;;6.21;88.44
78014;BME280;67222;50.182;8.734;2023-04-07T04:42:38;100397.91;;;6.35;88.67
78014;BME280;67222;50.182;8.734;2023-04-07T04:45:04;100399.31;;;6.23;89.13
78014;BME280;67222;50.182;8.734;2023-04-07T04:47:29;100400.50;;;6.20;89.53
78014;BME280;67222;50.182;8.734;2023-04-07T04:49:55;100403.25;;;6.27;88.82
78014;BME280;67222;50.182;8.734;2023-04-07T04:52:20;100415.50;;;6.28;89.37
78014;BME280;67222;50.182;8.734;2023-04-07T04:54:46;100399.78;;;6.26;88.19
78014;BME280;67222;50.182;8.734;2023-04-07T04:57:11;100403.63;;;6.24;88.80
78014;BME280;67222;50.182;8.734;2023-04-07T04:59:36;100402.84;;;6.38;87.95
78014;BME280;67222;50.182;8.734;2023-04-07T05:02:01;100411.72;;;6.45;87.91
78014;BME280;67222;50.182;8.734;2023-04-07T05:04:27;100412.75;;;6.44;87.69
78014;BME280;67222;50.182;8.734;2023-04-07T05:06:52;100406.16;;;6.40;88.13
78014;BME280;67222;50.182;8.734;2023-04-07T05:09:17;100409.72;;;6.47;88.53
78014;BME280;67222;50.182;8.734;2023-04-07T05:11:43;100412.16;;;6.34;88.16
78014;BME280;67222;50.182;8.734;2023-04-07T05:14:08;100411.72;;;6.45;88.77
78014;BME280;67222;50.182;8.734;2023-04-07T05:16:34;100407.34;;;6.37;89.20
78014;BME280;67222;50.182;8.734;2023-04-07T05:19:00;100406.50;;;6.37;88.40
78014;BME280;67222;50.182;8.734;2023-04-07T05:21:25;100408.19;;;6.30;88.76
78014;BME280;67222;50.182;8.734;2023-04-07T05:23:51;100400.38;;;6.36;89.18
78014;BME280;67222;50.182;8.734;2023-04-07T05:26:16;100406.56;;;6.29;88.53
78014;BME280;67222;50.182;8.734;2023-04-07T05:28:42;100404.22;;;6.34;89.07
78014;BME280;67222;50.182;8.734;2023-04-07T05:31:07;100402.13;;;6.44;88.56
78014;BME280;67222;50.182;8.734;2023-04-07T05:33:32;100389.97;;;6.35;87.76
78014;BME280;67222;50.182;8.734;2023-04-07T05:35:58;100398.94;;;6.34;88.93
78014;BME280;67222;50.182;8.734;2023-04-07T05:38:24;100406.50;;;6.37;89.12
78014;BME280;67222;50.182;8.734;2023-04-07T05:40:49;100399.25;;;6.31;88.32
78014;BME280;67222;50.182;8.734;2023-04-07T05:43:14;100400.22;;;6.38;89.02
78014;BME280;67222;50.182;8.734;2023-04-07T05:45:40;100404.97;;;6.43;88.02
78014;BME280;67222;50.182;8.734;2023-04-07T05:48:05;100404.16;;;6.42;88.28
78014;BME280;67222;50.182;8.734;2023-04-07T05:50:30;100405.56;;;6.53;88.89
78014;BME280;67222;50.182;8.734;2023-04-07T05:52:56;100403.09;;;6.51;88.55
78014;BME280;67222;50.182;8.734;2023-04-07T05:55:21;100408.44;;;6.43;87.20
78014;BME280;67222;50.182;8.734;2023-04-07T05:57:46;100404.31;;;6.41;89.62
78014;BME280;67222;50.182;8.734;2023-04-07T06:00:12;100410.09;;;6.44;88.55
78014;BME280;67222;50.182;8.734;2023-04-07T06:02:38;100408.81;;;6.40;89.08
78014;BME280;67222;50.182;8.734;2023-04-07T06:05:04;100412.09;;;6.42;88.01
78014;BME280;67222;50.182;8.734;2023-04-07T06:07:30;100401.50;;;6.42;87.92
78014;BME280;67222;50.182;8.734;2023-04-07T06:09:55;100403.50;;;6.40;87.81
78014;BME280;67222;50.182;8.734;2023-04-07T06:12:20;100405.69;;;6.36;87.62
78014;BME280;67222;50.182;8.734;2023-04-07T06:14:51;100411.38;;;6.48;88.42
78014;BME280;67222;50.182;8.734;2023-04-07T06:17:16;100404.06;;;6.50;89.25
78014;BME280;67222;50.182;8.734;2023-04-07T06:19:41;100412.56;;;6.46;88.19
78014;BME280;67222;50.182;8.734;2023-04-07T06:22:07;100406.91;;;6.49;88.66
78014;BME280;67222;50.182;8.734;2023-04-07T06:24:32;100412.56;;;6.46;87.87
78014;BME280;67222;50.182;8.734;2023-04-07T06:26:59;100411.56;;;6.47;88.30
78014;BME280;67222;50.182;8.734;2023-04-07T06:29:25;100412.09;;;6.42;88.51
78014;BME280;67222;50.182;8.734;2023-04-07T06:31:50;100410.44;;;6.41;88.98
78014;BME280;67222;50.182;8.734;2023-04-07T06:34:16;100412.09;;;6.42;88.65
78014;BME280;67222;50.182;8.734;2023-04-07T06:36:41;100412.69;;;6.52;88.61
78014;BME280;67222;50.182;8.734;2023-04-07T06:39:06;100402.28;;;6.51;88.43
78014;BME280;67222;50.182;8.734;2023-04-07T06:41:32;100411.88;;;6.52;86.83
78014;BME280;67222;50.182;8.734;2023-04-07T06:43:57;100410.22;;;6.51;88.22
78014;BME280;67222;50.182;8.734;2023-04-07T06:46:22;100411.31;;;6.56;88.14
78014;BME280;67222;50.182;8.734;2023-04-07T06:48:50;100414.44;;;6.60;89.37
78014;BME280;67222;50.182;8.734;2023-04-07T06:51:15;100409.31;;;6.58;88.45
78014;BME280;67222;50.182;8.734;2023-04-07T06:53:41;100415.44;;;6.59;88.28
78014;BME280;67222;50.182;8.734;2023-04-07T06:56:09;100420.78;;;6.74;89.43
78014;BME280;67222;50.182;8.734;2023-04-07T06:58:36;100415.25;;;6.60;88.29
78014;BME280;67222;50.182;8.734;2023-04-07T07:01:03;100408.41;;;6.51;88.64
78014;BME280;67222;50.182;8.734;2023-04-07T07:03:29;100425.13;;;6.52;89.32
78014;BME280;67222;50.182;8.734;2023-04-07T07:05:56;100421.94;;;6.56;88.22
78014;BME280;67222;50.182;8.734;2023-04-07T07:08:22;100423.75;;;6.56;89.36
78014;BME280;67222;50.182;8.734;2023-04-07T07:10:47;100419.66;;;6.68;88.47
78014;BME280;67222;50.182;8.734;2023-04-07T07:13:13;100419.19;;;6.64;87.63
78014;BME280;67222;50.182;8.734;2023-04-07T07:15:38;100423.03;;;6.62;88.72
78014;BME280;67222;50.182;8.734;2023-04-07T07:18:03;100421.03;;;6.64;88.86
78014;BME280;67222;50.182;8.734;2023-04-07T07:20:29;100426.31;;;6.64;89.65
78014;BME280;67222;50.182;8.734;2023-04-07T07:22:54;100431.91;;;6.69;88.83
78014;BME280;67222;50.182;8.734;2023-04-07T07:25:20;100424.84;;;6.61;88.75
78014;BME280;67222;50.182;8.734;2023-04-07T07:27:46;100422.22;;;6.61;88.62
78014;BME280;67222;50.182;8.734;2023-04-07T07:30:11;100423.50;;;6.65;89.68
78014;BME280;67222;50.182;8.734;2023-04-07T07:32:37;100427.66;;;6.83;89.31
78014;BME280;67222;50.182;8.734;2023-04-07T07:35:02;100429.94;;;6.86;89.11
78014;BME280;67222;50.182;8.734;2023-04-07T07:37:27;100434.25;;;6.87;88.67
78014;BME280;67222;50.182;8.734;2023-04-07T07:39:53;100430.13;;;6.84;89.20
78014;BME280;67222;50.182;8.734;2023-04-07T07:42:18;100425.13;;;6.89;88.30
78014;BME280;67222;50.182;8.734;2023-04-07T07:44:43;100430.44;;;6.89;88.30
78014;BME280;67222;50.182;8.734;2023-04-07T07:47:09;100430.09;;;7.07;88.75
78014;BME280;67222;50.182;8.734;2023-04-07T07:49:34;100441.84;;;7.05;89.20
78014;BME280;67222;50.182;8.734;2023-04-07T07:52:00;100435.91;;;7.03;88.05
78014;BME280;67222;50.182;8.734;2023-04-07T07:54:26;100434.03;;;7.11;88.93
78014;BME280;67222;50.182;8.734;2023-04-07T07:56:51;100434.50;;;7.15;88.16
78014;BME280;67222;50.182;8.734;2023-04-07T07:59:17;100438.88;;;7.08;88.05
78014;BME280;67222;50.182;8.734;2023-04-07T08:01:42;100442.13;;;6.95;88.39
78014;BME280;67222;50.182;8.734;2023-04-07T08:04:07;100445.09;;;7.15;87.57
78014;BME280;67222;50.182;8.734;2023-04-07T08:06:33;100443.88;;;7.03;88.65
78014;BME280;67222;50.182;8.734;2023-04-07T08:08:58;100451.47;;;6.91;88.53
78014;BME280;67222;50.182;8.734;2023-04-07T08:11:24;100448.16;;;6.89;89.17
78014;BME280;67222;50.182;8.734;2023-04-07T08:13:49;100453.75;;;6.94;88.44
78014;BME280;67222;50.182;8.734;2023-04-07T08:16:14;100461.78;;;7.01;88.35
78014;BME280;67222;50.182;8.734;2023-04-07T08:18:39;100457.25;;;7.09;88.44
78014;BME280;67222;50.182;8.734;2023-04-07T08:21:05;100466.44;;;6.98;88.03
78014;BME280;67222;50.182;8.734;2023-04-07T08:23:31;100460.50;;;6.96;88.49
78014;BME280;67222;50.182;8.734;2023-04-07T08:25:56;100459.59;;;7.04;87.76
78014;BME280;67222;50.182;8.734;2023-04-07T08:28:23;100462.97;;;6.98;88.43
78014;BME280;67222;50.182;8.734;2023-04-07T08:30:48;100461.25;;;7.05;88.60
78014;BME280;67222;50.182;8.734;2023-04-07T08:33:14;100455.78;;;7.21;88.49
78014;BME280;67222;50.182;8.734;2023-04-07T08:35:39;100464.38;;;7.09;87.70
78014;BME280;67222;50.182;8.734;2023-04-07T08:38:05;100466.22;;;7.08;89.02
78014;BME280;67222;50.182;8.734;2023-04-07T08:40:32;100468.88;;;7.23;88.47
78014;BME280;67222;50.182;8.734;2023-04-07T08:42:59;100466.03;;;7.10;87.86
78014;BME280;67222;50.182;8.734;2023-04-07T08:45:25;100468.78;;;7.16;88.78
78014;BME280;67222;50.182;8.734;2023-04-07T08:47:54;100473.34;;;7.22;87.83
78014;BME280;67222;50.182;8.734;2023-04-07T08:50:21;100474.66;;;7.26;87.37
78014;BME280;67222;50.182;8.734;2023-04-07T08:52:52;100477.38;;;7.18;88.19
78014;BME280;67222;50.182;8.734;2023-04-07T08:55:18;100474.28;;;7.29;89.11
78014;BME280;67222;50.182;8.734;2023-04-07T08:57:44;100466.84;;;7.25;88.10
78014;BME280;67222;50.182;8.734;2023-04-07T09:00:11;100474.19;;;7.38;88.43
78014;BME280;67222;50.182;8.734;2023-04-07T09:02:38;100480.41;;;7.30;87.12
78014;BME280;67222;50.182;8.734;2023-04-07T09:05:06;100479.69;;;7.36;89.41
78014;BME280;67222;50.182;8.734;2023-04-07T09:07:33;100481.44;;;7.58;88.54
78014;BME280;67222;50.182;8.734;2023-04-07T09:09:59;100478.31;;;7.55;87.75
78014;BME280;67222;50.182;8.734;2023-04-07T09:12:27;100485.56;;;7.46;89.14
78014;BME280;67222;50.182;8.734;2023-04-07T09:14:52;100488.41;;;7.45;88.33
78014;BME280;67222;50.182;8.734;2023-04-07T09:17:18;100488.19;;;7.61;88.16
78014;BME280;67222;50.182;8.734;2023-04-07T09:19:43;100485.56;;;7.46;88.08
78014;BME280;67222;50.182;8.734;2023-04-07T09:22:09;100490.38;;;7.43;89.47
78014;BME280;67222;50.182;8.734;2023-04-07T09:24:36;100488.38;;;7.30;88.67
78014;BME280;67222;50.182;8.734;2023-04-07T09:27:16;100490.03;;;7.46;89.41
78014;BME280;67222;50.182;8.734;2023-04-07T09:29:42;100494.97;;;7.49;90.80
78014;BME280;67222;50.182;8.734;2023-04-07T09:32:09;100494.16;;;7.48;89.94
78014;BME280;67222;50.182;8.734;2023-04-07T09:34:36;100486.38;;;7.62;89.30
78014;BME280;67222;50.182;8.734;2023-04-07T09:37:04;100495.72;;;7.57;88.53
78014;BME280;67222;50.182;8.734;2023-04-07T09:39:29;100490.31;;;7.66;88.96
78014;BME280;67222;50.182;8.734;2023-04-07T09:41:55;100494.63;;;7.67;88.87
78014;BME280;67222;50.182;8.734;2023-04-07T09:44:23;100495.00;;;7.64;87.68
78014;BME280;67222;50.182;8.734;2023-04-07T09:46:55;100494.72;;;7.73;87.05
78014;BME280;67222;50.182;8.734;2023-04-07T09:49:22;100493.16;;;7.64;88.25
78014;BME280;67222;50.182;8.734;2023-04-07T09:52:14;100499.94;;;7.67;87.66
78014;BME280;67222;50.182;8.734;2023-04-07T09:54:41;100493.88;;;7.73;88.64
78014;BME280;67222;50.182;8.734;2023-04-07T09:57:08;100494.06;;;7.71;88.65
78014;BME280;67222;50.182;8.734;2023-04-07T09:59:37;100496.66;;;7.65;89.02
78014;BME280;67222;50.182;8.734;2023-04-07T10:02:03;100494.78;;;7.80;88.91
78014;BME280;67222;50.182;8.734;2023-04-07T10:04:29;100490.41;;;7.72;88.27
78014;BME280;67222;50.182;8.734;2023-04-07T10:06:56;100492.34;;;7.64;88.90
78014;BME280;67222;50.182;8.734;2023-04-07T10:09:22;100495.63;;;7.66;88.85
78014;BME280;67222;50.182;8.734;2023-04-07T10:11:50;100499.47;;;7.78;88.95
78014;BME280;67222;50.182;8.734;2023-04-07T10:14:17;100497.00;;;7.76;87.80
78014;BME280;67222;50.182;8.734;2023-04-07T10:16:42;100504.31;;;7.74;88.88
78014;BME280;67222;50.182;8.734;2023-04-07T10:19:08;100501.09;;;7.79;87.67
78014;BME280;67222;50.182;8.734;2023-04-07T10:21:37;100502.03;;;7.86;87.22
78014;BME280;67222;50.182;8.734;2023-04-07T10:26:58;100506.78;;;7.76;88.04
78014;BME280;67222;50.182;8.734;2023-04-07T10:29:24;100519.22;;;7.75;88.79
78014;BME280;67222;50.182;8.734;2023-04-07T10:31:51;100506.44;;;7.64;88.99
78014;BME280;67222;50.182;8.734;2023-04-07T10:34:17;100517.69;;;7.66;89.54
78014;BME280;67222;50.182;8.734;2023-04-07T10:37:10;100517.22;;;7.77;88.64
78014;BME280;67222;50.182;8.734;2023-04-07T10:39:38;100515.50;;;7.70;88.33
78014;BME280;67222;50.182;8.734;2023-04-07T10:42:03;100528.03;;;7.76;88.89
78014;BME280;67222;50.182;8.734;2023-04-07T10:47:04;100523.25;;;7.71;88.38
78014;BME280;67222;50.182;8.734;2023-04-07T10:49:31;100525.28;;;7.84;88.62
78014;BME280;67222;50.182;8.734;2023-04-07T10:54:35;100525.19;;;8.07;89.89
78014;BME280;67222;50.182;8.734;2023-04-07T10:57:11;100530.31;;;8.08;89.70
78014;BME280;67222;50.182;8.734;2023-04-07T11:02:36;100537.38;;;8.01;89.30
78014;BME280;67222;50.182;8.734;2023-04-07T11:05:02;100535.63;;;8.08;89.08
78014;BME280;67222;50.182;8.734;2023-04-07T11:07:43;100540.81;;;8.16;89.46
78014;BME280;67222;50.182;8.734;2023-04-07T11:10:11;100529.09;;;8.11;88.73
78014;BME280;67222;50.182;8.734;2023-04-07T11:12:36;100541.13;;;8.07;89.57
78014;BME280;67222;50.182;8.734;2023-04-07T11:15:21;100544.03;;;8.12;88.47
78014;BME280;67222;50.182;8.734;2023-04-07T11:18:05;100537.00;;;8.19;89.64
78014;BME280;67222;50.182;8.734;2023-04-07T11:20:44;100531.00;;;8.17;90.06
78014;BME280;67222;50.182;8.734;2023-04-07T11:23:11;100534.59;;;8.39;89.55
78014;BME280;67222;50.182;8.734;2023-04-07T11:25:37;100532.13;;;8.23;88.85
78014;BME280;67222;50.182;8.734;2023-04-07T11:28:03;100531.75;;;8.40;88.93
78014;BME280;67222;50.182;8.734;2023-04-07T11:30:28;100535.13;;;8.34;87.29
78014;BME280;67222;50.182;8.734;2023-04-07T11:32:55;100537.91;;;8.41;87.83
78014;BME280;67222;50.182;8.734;2023-04-07T11:35:21;100544.84;;;8.42;87.95
78014;BME280;67222;50.182;8.734;2023-04-07T11:37:47;100542.44;;;8.32;88.75
78014;BME280;67222;50.182;8.734;2023-04-07T11:40:12;100545.75;;;8.34;88.96
78014;BME280;67222;50.182;8.734;2023-04-07T11:42:41;100541.19;;;8.43;87.88
78014;BME280;67222;50.182;8.734;2023-04-07T11:45:17;100549.97;;;8.43;87.56
78014;BME280;67222;50.182;8.734;2023-04-07T11:47:44;100544.66;;;8.43;88.45
78014;BME280;67222;50.182;8.734;2023-04-07T11:50:10;100552.63;;;8.43;89.00
78014;BME280;67222;50.182;8.734;2023-04-07T11:52:48;100549.66;;;8.53;88.72
78014;BME280;67222;50.182;8.734;2023-04-07T11:57:42;100559.63;;;8.66;88.05
78014;BME280;67222;50.182;8.734;2023-04-07T12:00:10;100559.59;;;8.44;88.26
78014;BME280;67222;50.182;8.734;2023-04-07T12:02:36;100556.31;;;8.42;89.42
78014;BME280;67222;50.182;8.734;2023-04-07T12:05:02;100560.69;;;8.35;89.56
78014;BME280;67222;50.182;8.734;2023-04-07T12:07:27;100562.06;;;8.46;89.93
78014;BME280;67222;50.182;8.734;2023-04-07T12:09:53;100558.75;;;8.59;89.68
78014;BME280;67222;50.182;8.734;2023-04-07T12:12:28;100560.09;;;8.55;89.50
78014;BME280;67222;50.182;8.734;2023-04-07T12:14:54;100559.38;;;8.61;89.46
78014;BME280;67222;50.182;8.734;2023-04-07T12:17:25;100562.94;;;8.89;88.21
78014;BME280;67222;50.182;8.734;2023-04-07T12:19:51;100562.94;;;8.68;87.83
78014;BME280;67222;50.182;8.734;2023-04-07T12:22:16;100575.47;;;8.74;89.30
78014;BME280;67222;50.182;8.734;2023-04-07T12:24:41;100566.16;;;8.63;89.66
78014;BME280;67222;50.182;8.734;2023-04-07T12:27:07;100572.81;;;8.74;89.87
78014;BME280;67222;50.182;8.734;2023-04-07T12:29:33;100568.59;;;8.79;89.17
78014;BME280;67222;50.182;8.734;2023-04-07T12:31:59;100572.69;;;8.82;88.48
78014;BME280;67222;50.182;8.734;2023-04-07T12:34:25;100567.81;;;8.86;88.63
78014;BME280;67222;50.182;8.734;2023-04-07T12:36:51;100570.38;;;8.94;87.72
78014;BME280;67222;50.182;8.734;2023-04-07T12:39:16;100565.69;;;8.96;87.89
78014;BME280;67222;50.182;8.734;2023-04-07T12:41:42;100571.25;;;9.01;88.75
78014;BME280;67222;50.182;8.734;2023-04-07T12:44:09;100574.94;;;9.00;87.85
78014;BME280;67222;50.182;8.734;2023-04-07T12:46:35;100576.38;;;9.02;87.79
78014;BME280;67222;50.182;8.734;2023-04-07T12:49:00;100575.31;;;8.97;87.41
78014;BME280;67222;50.182;8.734;2023-04-07T12:51:26;100577.00;;;9.04;87.72
78014;BME280;67222;50.182;8.734;2023-04-07T12:53:52;100582.31;;;9.04;86.40
78014;BME280;67222;50.182;8.734;2023-04-07T12:56:18;100574.78;;;9.29;86.14
78014;BME280;67222;50.182;8.734;2023-04-07T12:58:43;100575.81;;;9.56;87.06
78014;BME280;67222;50.182;8.734;2023-04-07T13:01:09;100578.72;;;9.89;85.97
78014;BME280;67222;50.182;8.734;2023-04-07T13:03:34;100572.22;;;10.33;85.54
78014;BME280;67222;50.182;8.734;2023-04-07T13:06:00;100566.00;;;10.67;83.39
78014;BME280;67222;50.182;8.734;2023-04-07T13:08:28;100571.16;;;10.82;81.53
78014;BME280;67222;50.182;8.734;2023-04-07T13:10:54;100560.91;;;10.92;80.18
78014;BME280;67222;50.182;8.734;2023-04-07T13:13:20;100574.44;;;10.84;82.01
78014;BME280;67222;50.182;8.734;2023-04-07T13:15:45;100562.13;;;10.83;80.79
78014;BME280;67222;50.182;8.734;2023-04-07T13:18:11;100566.47;;;11.04;80.78
78014;BME280;67222;50.182;8.734;2023-04-07T13:20:36;100565.88;;;11.08;80.30
78014;BME280;67222;50.182;8.734;2023-04-07T13:23:02;100563.56;;;10.92;77.88
78014;BME280;67222;50.182;8.734;2023-04-07T13:25:27;100564.63;;;10.98;77.64
78014;BME280;67222;50.182;8.734;2023-04-07T13:27:52;100558.84;;;10.87;77.87
78014;BME280;67222;50.182;8.734;2023-04-07T13:30:17;100554.78;;;11.25;77.58
78014;BME280;67222;50.182;8.734;2023-04-07T13:32:43;100560.72;;;11.13;77.33
78014;BME280;67222;50.182;8.734;2023-04-07T13:35:08;100560.97;;;11.45;75.59
78014;BME280;67222;50.182;8.734;2023-04-07T13:37:33;100563.38;;;10.87;80.15
78014;BME280;67222;50.182;8.734;2023-04-07T13:39:59;100568.28;;;10.83;77.91
78014;BME280;67222;50.182;8.734;2023-04-07T13:42:24;100571.53;;;10.66;78.46
78014;BME280;67222;50.182;8.734;2023-04-07T13:44:49;100573.72;;;10.42;80.42
78014;BME280;67222;50.182;8.734;2023-04-07T13:47:16;100567.97;;;10.45;78.89
78014;BME280;67222;50.182;8.734;2023-04-07T13:49:46;100573.88;;;10.34;81.84
78014;BME280;67222;50.182;8.734;2023-04-07T13:52:12;100570.28;;;10.20;82.55
78014;BME280;67222;50.182;8.734;2023-04-07T13:54:38;100573.84;;;9.99;82.68
78014;BME280;67222;50.182;8.734;2023-04-07T13:57:03;100568.28;;;9.94;81.73
78014;BME280;67222;50.182;8.734;2023-04-07T13:59:29;100583.97;;;9.76;82.92
78014;BME280;67222;50.182;8.734;2023-04-07T14:01:55;100586.19;;;9.73;83.70
78014;BME280;67222;50.182;8.734;2023-04-07T14:04:20;100581.88;;;9.71;84.42
78014;BME280;67222;50.182;8.734;2023-04-07T14:06:47;100583.13;;;9.76;84.37
78014;BME280;67222;50.182;8.734;2023-04-07T14:09:12;100576.59;;;9.78;83.24
78014;BME280;67222;50.182;8.734;2023-04-07T14:11:38;100581.31;;;9.83;83.19
78014;BME280;67222;50.182;8.734;2023-04-07T14:14:03;100575.88;;;9.91;83.42
78014;BME280;67222;50.182;8.734;2023-04-07T14:16:29;100576.09;;;9.96;83.40
78014;BME280;67222;50.182;8.734;2023-04-07T14:18:54;100578.38;;;10.34;83.52
78014;BME280;67222;50.182;8.734;2023-04-07T14:21:20;100569.97;;;11.11;78.90
78014;BME280;67222;50.182;8.734;2023-04-07T14:23:45;100576.34;;;11.89;75.52
78014;BME280;67222;50.182;8.734;2023-04-07T14:26:11;100568.28;;;12.98;71.24
78014;BME280;67222;50.182;8.734;2023-04-07T14:28:37;100575.91;;;13.58;68.42
78014;BME280;67222;50.182;8.734;2023-04-07T14:31:03;100570.41;;;13.96;66.61
78014;BME280;67222;50.182;8.734;2023-04-07T14:33:28;100557.72;;;14.58;64.49
78014;BME280;67222;50.182;8.734;2023-04-07T14:35:53;100571.16;;;13.60;65.24
78014;BME280;67222;50.182;8.734;2023-04-07T14:38:19;100567.88;;;13.58;67.04
78014;BME280;67222;50.182;8.734;2023-04-07T14:40:52;100561.16;;;13.17;65.84
78014;BME280;67222;50.182;8.734;2023-04-07T14:43:17;100565.91;;;13.47;67.13
78014;BME280;67222;50.182;8.734;2023-04-07T14:45:43;100560.28;;;14.16;65.15
78014;BME280;67222;50.182;8.734;2023-04-07T14:48:09;100559.44;;;14.52;64.54
78014;BME280;67222;50.182;8.734;2023-04-07T14:50:35;100560.09;;;14.30;64.33
78014;BME280;67222;50.182;8.734;2023-04-07T14:53:00;100561.72;;;14.31;65.31
78014;BME280;67222;50.182;8.734;2023-04-07T14:55:26;100557.63;;;14.28;67.53
78014;BME280;67222;50.182;8.734;2023-04-07T14:57:51;100567.03;;;14.01;66.03
78014;BME280;67222;50.182;8.734;2023-04-07T15:00:17;100566.50;;;13.24;68.64
78014;BME280;67222;50.182;8.734;2023-04-07T15:02:42;100575.59;;;12.85;68.29
78014;BME280;67222;50.182;8.734;2023-04-07T15:05:07;100569.53;;;12.64;70.50
78014;BME280;67222;50.182;8.734;2023-04-07T15:07:33;100578.28;;;12.33;72.95
78014;BME280;67222;50.182;8.734;2023-04-07T15:09:59;100572.91;;;12.47;71.49
78014;BME280;67222;50.182;8.734;2023-04-07T15:12:25;100576.75;;;12.57;71.50
78014;BME280;67222;50.182;8.734;2023-04-07T15:14:52;100581.28;;;12.57;70.75
78014;BME280;67222;50.182;8.734;2023-04-07T15:17:18;100580.84;;;12.60;72.35
78014;BME280;67222;50.182;8.734;2023-04-07T15:19:44;100583.19;;;12.43;68.73
78014;BME280;67222;50.182;8.734;2023-04-07T15:22:09;100585.47;;;12.39;68.60
78014;BME280;67222;50.182;8.734;2023-04-07T15:24:34;100587.63;;;12.04;68.40
78014;BME280;67222;50.182;8.734;2023-04-07T15:27:00;100587.00;;;12.02;70.28
78014;BME280;67222;50.182;8.734;2023-04-07T15:29:25;100585.78;;;12.11;69.70
78014;BME280;67222;50.182;8.734;2023-04-07T15:31:50;100581.47;;;12.10;70.11
78014;BME280;67222;50.182;8.734;2023-04-07T15:34:15;100583.72;;;12.00;70.95
78014;BME280;67222;50.182;8.734;2023-04-07T15:36:41;100579.22;;;12.01;73.28
78014;BME280;67222;50.182;8.734;2023-04-07T15:39:06;100585.19;;;11.83;74.05
78014;BME280;67222;50.182;8.734;2023-04-07T15:41:32;100589.28;;;11.52;74.65
78014;BME280;67222;50.182;8.734;2023-04-07T15:43:58;100586.41;;;11.47;75.65
78014;BME280;67222;50.182;8.734;2023-04-07T15:46:24;100593.59;;;11.27;74.67
78014;BME280;67222;50.182;8.734;2023-04-07T15:48:49;100590.31;;;11.25;76.66
78014;BME280;67222;50.182;8.734;2023-04-07T15:51:16;100596.28;;;11.27;77.18
78014;BME280;67222;50.182;8.734;2023-04-07T15:53:41;100599.31;;;11.11;76.12
78014;BME280;67222;50.182;8.734;2023-04-07T15:56:07;100602.97;;;10.97;75.37
78014;BME280;67222;50.182;8.734;2023-04-07T15:58:33;100601.78;;;10.99;75.76
78014;BME280;67222;50.182;8.734;2023-04-07T16:00:58;100601.19;;;11.04;75.62
78014;BME280;67222;50.182;8.734;2023-04-07T16:03:24;100596.25;;;11.14;75.72
78014;BME280;67222;50.182;8.734;2023-04-07T16:05:52;100599.16;;;11.19;73.68
78014;BME280;67222;50.182;8.734;2023-04-07T16:08:17;100600.78;;;11.20;75.88
78014;BME280;67222;50.182;8.734;2023-04-07T16:10:42;100599.75;;;11.28;75.05
78014;BME280;67222;50.182;8.734;2023-04-07T16:13:08;100610.66;;;11.19;72.01
78014;BME280;67222;50.182;8.734;2023-04-07T16:15:34;100606.09;;;11.07;72.39
78014;BME280;67222;50.182;8.734;2023-04-07T16:18:03;100604.00;;;10.96;73.16
78014;BME280;67222;50.182;8.734;2023-04-07T16:20:28;100612.63;;;10.91;76.15
78014;BME280;67222;50.182;8.734;2023-04-07T16:22:54;100615.50;;;10.89;74.72
78014;BME280;67222;50.182;8.734;2023-04-07T16:25:19;100610.78;;;10.91;73.42
78014;BME280;67222;50.182;8.734;2023-04-07T16:27:44;100617.94;;;10.84;74.82
78014;BME280;67222;50.182;8.734;2023-04-07T16:30:11;100617.28;;;10.69;74.78
78014;BME280;67222;50.182;8.734;2023-04-07T16:32:41;100629.38;;;10.72;75.87
78014;BME280;67222;50.182;8.734;2023-04-07T16:35:08;100625.22;;;10.56;74.13
78014;BME280;67222;50.182;8.734;2023-04-07T16:37:34;100624.16;;;10.44;73.86
78014;BME280;67222;50.182;8.734;2023-04-07T16:40:00;100630.66;;;10.35;73.63
78014;BME280;67222;50.182;8.734;2023-04-07T16:42:26;100636.88;;;10.42;74.85
78014;BME280;67222;50.182;8.734;2023-04-07T16:44:54;100629.41;;;10.30;73.58
78014;BME280;67222;50.182;8.734;2023-04-07T16:47:26;100640.53;;;10.13;74.86
78014;BME280;67222;50.182;8.734;2023-04-07T16:49:51;100640.72;;;10.05;74.42
78014;BME280;67222;50.182;8.734;2023-04-07T16:52:17;100637.22;;;10.04;75.55
78014;BME280;67222;50.182;8.734;2023-04-07T16:54:42;100643.22;;;9.85;78.06
78014;BME280;67222;50.182;8.734;2023-04-07T16:57:08;100649.00;;;9.88;79.26
78014;BME280;67222;50.182;8.734;2023-04-07T16:59:33;100643.72;;;9.67;77.53
78014;BME280;67222;50.182;8.734;2023-04-07T17:02:08;100646.31;;;9.60;79.50
78014;BME280;67222;50.182;8.734;2023-04-07T17:04:36;100651.13;;;9.50;80.30
78014;BME280;67222;50.182;8.734;2023-04-07T17:07:01;100645.44;;;9.32;80.21
78014;BME280;67222;50.182;8.734;2023-04-07T17:09:27;100661.41;;;9.32;78.77
78014;BME280;67222;50.182;8.734;2023-04-07T17:11:52;100664.88;;;9.32;81.30
78014;BME280;67222;50.182;8.734;2023-04-07T17:14:17;100662.78;;;9.28;79.56
78014;BME280;67222;50.182;8.734;2023-04-07T17:16:42;100669.75;;;9.29;81.16
78014;BME280;67222;50.182;8.734;2023-04-07T17:19:08;100668.00;;;9.36;81.68
78014;BME280;67222;50.182;8.734;2023-04-07T17:21:33;100673.69;;;9.33;82.38
78014;BME280;67222;50.182;8.734;2023-04-07T17:23:58;100676.66;;;9.23;83.06
78014;BME280;67222;50.182;8.734;2023-04-07T17:26:24;100664.81;;;9.26;83.91
78014;BME280;67222;50.182;8.734;2023-04-07T17:28:50;100673.22;;;9.29;83.24
78014;BME280;67222;50.182;8.734;2023-04-07T17:31:15;100672.59;;;9.27;83.81
78014;BME280;67222;50.182;8.734;2023-04-07T17:33:40;100669.06;;;9.20;82.60
78014;BME280;67222;50.182;8.734;2023-04-07T17:36:06;100673.41;;;9.28;82.48